sensor_id;sensor_type;location;lat;lon;timestamp;temperature;humidity
60701;DHT22;46541;49.894;10.886;2023-05-14T00:00:29;13.20;99.90
60701;DHT22;46541;49.894;10.886;2023-05-14T00:02:56;13.10;99.90
60701;DHT22;46541;49.894;10.886;2023-05-14T00:05:23;13.10;99.90
60701;DHT22;46541;49.894;10.886;2023-05-14T00:07:50;13.10;99.90
60701;DHT22;46541;49.894;10.886;2023-05-14T00:10:16;13.10;99.90
60701;DHT22;46541;49.894;10.886;2023-05-14T00:12:45;13.10;99.90
60701;DHT22;46541;49.894;10.886;2023-05-14T00:15:12;13.10;99.90
60701;DHT22;46541;49.894;10.886;2023-05-14T00:17:39;13.00;99.90
60701;DHT22;46541;49.894;10.886;2023-05-14T00:20:08;12.90;99.90
60701;DHT22;46541;49.894;10.886;2023-05-14T00:22:38;12.90;99.90
60701;DHT22;46541;49.894;10.886;2023-05-14T00:25:06;12.80;99.90
60701;DHT22;46541;49.894;10.886;2023-05-14T00:27:34;12.80;99.90
60701;DHT22;46541;49.894;10.886;2023-05-14T00:30:03;12.80;99.90
60701;DHT22;46541;49.894;10.886;2023-05-14T00:32:30;12.80;99.90
60701;DHT22;46541;49.894;10.886;2023-05-14T00:34:57;12.70;99.90
60701;DHT22;46541;49.894;10.886;2023-05-14T00:37:24;12.70;99.90
60701;DHT22;46541;49.894;10.886;2023-05-14T00:39:50;12.70;99.90
60701;DHT22;46541;49.894;10.886;2023-05-14T00:42:17;12.70;99.90
60701;DHT22;46541;49.894;10.886;2023-05-14T00:44:44;12.70;99.90
60701;DHT22;46541;49.894;10.886;2023-05-14T00:47:11;12.60;99.90
60701;DHT22;46541;49.894;10.886;2023-05-14T00:49:38;12.60;99.90
60701;DHT22;46541;49.894;10.886;2023-05-14T00:52:06;12.50;99.90
60701;DHT22;46541;49.894;10.886;2023-05-14T00:54:33;12.50;99.90
60701;DHT22;46541;49.894;10.886;2023-05-14T00:57:02;12.50;99.90
60701;DHT22;46541;49.894;10.886;2023-05-14T00:59:30;12.50;99.90
60701;DHT22;46541;49.894;10.886;2023-05-14T01:01:57;12.50;99.90
60701;DHT22;46541;49.894;10.886;2023-05-14T01:04:23;12.50;99.90
60701;DHT22;46541;49.894;10.886;2023-05-14T01:17:32;12.50;99.90
60701;DHT22;46541;49.894;10.886;2023-05-14T01:20:03;12.40;99.90
60701;DHT22;46541;49.894;10.886;2023-05-14T01:22:30;12.40;99.90
60701;DHT22;46541;49.894;10.886;2023-05-14T01:24:56;12.40;99.90
60701;DHT22;46541;49.894;10.886;2023-05-14T01:30:35;12.40;99.90
60701;DHT22;46541;49.894;10.886;2023-05-14T01:33:09;12.40;99.90
60701;DHT22;46541;49.894;10.886;2023-05-14T01:35:36;12.40;99.90
60701;DHT22;46541;49.894;10.886;2023-05-14T01:38:06;12.40;99.90
60701;DHT22;46541;49.894;10.886;2023-05-14T01:40:34;12.30;99.90
60701;DHT22;46541;49.894;10.886;2023-05-14T01:43:02;12.40;99.90
60701;DHT22;46541;49.894;10.886;2023-05-14T01:45:30;12.50;99.90
60701;DHT22;46541;49.894;10.886;2023-05-14T01:47:56;12.50;99.90
60701;DHT22;46541;49.894;10.886;2023-05-14T01:50:23;12.60;99.90
60701;DHT22;46541;49.894;10.886;2023-05-14T01:52:50;12.60;99.90
60701;DHT22;46541;49.894;10.886;2023-05-14T01:55:19;12.60;99.90
60701;DHT22;46541;49.894;10.886;2023-05-14T01:57:45;12.60;99.90
60701;DHT22;46541;49.894;10.886;2023-05-14T02:00:12;12.60;99.90
60701;DHT22;46541;49.894;10.886;2023-05-14T02:02:39;12.60;99.90
60701;DHT22;46541;49.894;10.886;2023-05-14T02:05:07;12.70;99.90
60701;DHT22;46541;49.894;10.886;2023-05-14T02:07:34;12.60;99.90
60701;DHT22;46541;49.894;10.886;2023-05-14T02:10:00;12.60;99.90
60701;DHT22;46541;49.894;10.886;2023-05-14T02:12:27;12.50;99.90
60701;DHT22;46541;49.894;10.886;2023-05-14T02:14:54;12.50;99.90
60701;DHT22;46541;49.894;10.886;2023-05-14T02:17:21;12.60;99.90
60701;DHT22;46541;49.894;10.886;2023-05-14T02:19:48;12.60;99.90
60701;DHT22;46541;49.894;10.886;2023-05-14T02:22:15;12.60;99.90
60701;DHT22;46541;49.894;10.886;2023-05-14T02:24:41;12.60;99.90
60701;DHT22;46541;49.894;10.886;2023-05-14T02:27:08;12.60;99.90
60701;DHT22;46541;49.894;10.886;2023-05-14T02:29:35;12.60;99.90
60701;DHT22;46541;49.894;10.886;2023-05-14T02:32:01;12.60;99.90
60701;DHT22;46541;49.894;10.886;2023-05-14T02:34:28;12.60;99.90
60701;DHT22;46541;49.894;10.886;2023-05-14T02:36:55;12.60;99.90
60701;DHT22;46541;49.894;10.886;2023-05-14T02:39:21;12.60;99.90
60701;DHT22;46541;49.894;10.886;2023-05-14T02:41:48;12.70;99.90
60701;DHT22;46541;49.894;10.886;2023-05-14T02:44:15;12.60;99.90
60701;DHT22;46541;49.894;10.886;2023-05-14T02:46:42;12.60;99.90
60701;DHT22;46541;49.894;10.886;2023-05-14T02:49:08;12.60;99.90
60701;DHT22;46541;49.894;10.886;2023-05-14T02:51:35;12.60;99.90
60701;DHT22;46541;49.894;10.886;2023-05-14T02:54:02;12.60;99.90
60701;DHT22;46541;49.894;10.886;2023-05-14T02:56:29;12.60;99.90
60701;DHT22;46541;49.894;10.886;2023-05-14T02:58:55;12.60;99.90
60701;DHT22;46541;49.894;10.886;2023-05-14T03:01:23;12.50;99.90
60701;DHT22;46541;49.894;10.886;2023-05-14T03:03:50;12.50;99.90
60701;DHT22;46541;49.894;10.886;2023-05-14T03:06:17;12.50;99.90
60701;DHT22;46541;49.894;10.886;2023-05-14T03:08:43;12.60;99.90
60701;DHT22;46541;49.894;10.886;2023-05-14T03:11:11;12.60;99.90
60701;DHT22;46541;49.894;10.886;2023-05-14T03:13:37;12.60;99.90
60701;DHT22;46541;49.894;10.886;2023-05-14T03:16:04;12.60;99.90
60701;DHT22;46541;49.894;10.886;2023-05-14T03:18:31;12.60;99.90
60701;DHT22;46541;49.894;10.886;2023-05-14T03:20:58;12.60;99.90
60701;DHT22;46541;49.894;10.886;2023-05-14T03:23:25;12.60;99.90
60701;DHT22;46541;49.894;10.886;2023-05-14T03:25:52;12.70;99.90
60701;DHT22;46541;49.894;10.886;2023-05-14T03:28:18;12.70;99.90
60701;DHT22;46541;49.894;10.886;2023-05-14T03:30:45;12.70;99.90
60701;DHT22;46541;49.894;10.886;2023-05-14T03:33:12;12.70;99.90
60701;DHT22;46541;49.894;10.886;2023-05-14T03:35:39;12.70;99.90
60701;DHT22;46541;49.894;10.886;2023-05-14T03:38:05;12.70;99.90
60701;DHT22;46541;49.894;10.886;2023-05-14T03:40:33;12.70;99.90
60701;DHT22;46541;49.894;10.886;2023-05-14T03:42:59;12.70;99.90
60701;DHT22;46541;49.894;10.886;2023-05-14T03:45:26;12.70;99.90
60701;DHT22;46541;49.894;10.886;2023-05-14T03:47:54;12.70;99.90
60701;DHT22;46541;49.894;10.886;2023-05-14T03:50:21;12.80;99.90
60701;DHT22;46541;49.894;10.886;2023-05-14T03:52:51;12.70;99.90
60701;DHT22;46541;49.894;10.886;2023-05-14T03:55:21;12.70;99.90
60701;DHT22;46541;49.894;10.886;2023-05-14T03:57:48;12.70;99.90
60701;DHT22;46541;49.894;10.886;2023-05-14T04:00:14;12.70;99.90
60701;DHT22;46541;49.894;10.886;2023-05-14T04:02:41;12.80;99.90
60701;DHT22;46541;49.894;10.886;2023-05-14T04:05:08;12.80;99.90
60701;DHT22;46541;49.894;10.886;2023-05-14T04:07:35;12.80;99.90
60701;DHT22;46541;49.894;10.886;2023-05-14T04:10:03;12.90;99.90
60701;DHT22;46541;49.894;10.886;2023-05-14T04:12:30;12.90;99.90
60701;DHT22;46541;49.894;10.886;2023-05-14T04:14:57;12.90;99.90
60701;DHT22;46541;49.894;10.886;2023-05-14T04:17:24;12.90;99.90
60701;DHT22;46541;49.894;10.886;2023-05-14T04:19:51;12.90;99.90
60701;DHT22;46541;49.894;10.886;2023-05-14T04:22:18;12.90;99.90
60701;DHT22;46541;49.894;10.886;2023-05-14T04:24:44;12.80;99.90
60701;DHT22;46541;49.894;10.886;2023-05-14T04:27:19;12.90;99.90
60701;DHT22;46541;49.894;10.886;2023-05-14T04:29:50;12.90;99.90
60701;DHT22;46541;49.894;10.886;2023-05-14T04:32:17;12.90;99.90
60701;DHT22;46541;49.894;10.886;2023-05-14T04:34:44;12.90;99.90
60701;DHT22;46541;49.894;10.886;2023-05-14T04:37:12;13.00;99.90
60701;DHT22;46541;49.894;10.886;2023-05-14T04:39:39;13.00;99.90
60701;DHT22;46541;49.894;10.886;2023-05-14T04:42:06;13.10;99.90
60701;DHT22;46541;49.894;10.886;2023-05-14T04:44:34;13.10;99.90
60701;DHT22;46541;49.894;10.886;2023-05-14T04:47:01;13.10;99.90
60701;DHT22;46541;49.894;10.886;2023-05-14T04:49:29;13.10;99.90
60701;DHT22;46541;49.894;10.886;2023-05-14T04:51:56;13.20;99.90
60701;DHT22;46541;49.894;10.886;2023-05-14T04:54:23;13.20;99.90
60701;DHT22;46541;49.894;10.886;2023-05-14T04:56:50;13.20;99.90
60701;DHT22;46541;49.894;10.886;2023-05-14T04:59:16;13.20;99.90
60701;DHT22;46541;49.894;10.886;2023-05-14T05:01:43;13.20;99.90
60701;DHT22;46541;49.894;10.886;2023-05-14T05:04:11;13.30;99.90
60701;DHT22;46541;49.894;10.886;2023-05-14T05:06:38;13.30;99.90
60701;DHT22;46541;49.894;10.886;2023-05-14T05:09:05;13.30;99.90
60701;DHT22;46541;49.894;10.886;2023-05-14T05:11:32;13.30;99.90
60701;DHT22;46541;49.894;10.886;2023-05-14T05:13:58;13.40;99.90
60701;DHT22;46541;49.894;10.886;2023-05-14T05:16:25;13.50;99.90
60701;DHT22;46541;49.894;10.886;2023-05-14T05:18:52;13.60;99.90
60701;DHT22;46541;49.894;10.886;2023-05-14T05:21:19;13.60;99.90
60701;DHT22;46541;49.894;10.886;2023-05-14T05:23:46;13.60;99.90
60701;DHT22;46541;49.894;10.886;2023-05-14T05:26:12;13.60;99.90
60701;DHT22;46541;49.894;10.886;2023-05-14T05:28:39;13.70;99.90
60701;DHT22;46541;49.894;10.886;2023-05-14T05:31:06;13.70;99.90
60701;DHT22;46541;49.894;10.886;2023-05-14T05:33:33;13.70;99.90
60701;DHT22;46541;49.894;10.886;2023-05-14T05:36:00;13.70;99.90
60701;DHT22;46541;49.894;10.886;2023-05-14T05:38:27;13.70;99.90
60701;DHT22;46541;49.894;10.886;2023-05-14T05:40:53;13.80;99.90
60701;DHT22;46541;49.894;10.886;2023-05-14T05:43:20;13.90;99.90
60701;DHT22;46541;49.894;10.886;2023-05-14T05:45:47;13.90;99.90
60701;DHT22;46541;49.894;10.886;2023-05-14T05:48:14;14.00;99.90
60701;DHT22;46541;49.894;10.886;2023-05-14T05:50:41;14.10;99.90
60701;DHT22;46541;49.894;10.886;2023-05-14T05:53:09;14.10;99.90
60701;DHT22;46541;49.894;10.886;2023-05-14T05:55:36;14.20;99.90
60701;DHT22;46541;49.894;10.886;2023-05-14T05:58:03;14.30;99.90
60701;DHT22;46541;49.894;10.886;2023-05-14T06:00:30;14.30;99.90
60701;DHT22;46541;49.894;10.886;2023-05-14T06:02:56;14.40;99.90
60701;DHT22;46541;49.894;10.886;2023-05-14T06:05:23;14.50;99.90
60701;DHT22;46541;49.894;10.886;2023-05-14T06:07:50;14.60;99.90
60701;DHT22;46541;49.894;10.886;2023-05-14T06:10:19;14.60;99.90
60701;DHT22;46541;49.894;10.886;2023-05-14T06:12:45;14.60;99.90
60701;DHT22;46541;49.894;10.886;2023-05-14T06:15:12;14.60;99.90
60701;DHT22;46541;49.894;10.886;2023-05-14T06:17:39;14.60;99.90
60701;DHT22;46541;49.894;10.886;2023-05-14T06:20:06;14.80;99.90
60701;DHT22;46541;49.894;10.886;2023-05-14T06:22:36;15.10;99.90
60701;DHT22;46541;49.894;10.886;2023-05-14T06:25:03;15.20;99.90
60701;DHT22;46541;49.894;10.886;2023-05-14T06:27:30;15.40;99.90
60701;DHT22;46541;49.894;10.886;2023-05-14T06:29:57;15.50;99.90
60701;DHT22;46541;49.894;10.886;2023-05-14T06:32:23;15.60;99.90
60701;DHT22;46541;49.894;10.886;2023-05-14T06:34:50;15.50;99.90
60701;DHT22;46541;49.894;10.886;2023-05-14T06:37:17;15.70;99.90
60701;DHT22;46541;49.894;10.886;2023-05-14T06:39:43;15.80;99.90
60701;DHT22;46541;49.894;10.886;2023-05-14T06:42:16;16.00;99.90
60701;DHT22;46541;49.894;10.886;2023-05-14T06:44:43;16.10;99.90
60701;DHT22;46541;49.894;10.886;2023-05-14T06:47:10;16.20;99.90
60701;DHT22;46541;49.894;10.886;2023-05-14T06:49:38;16.40;99.90
60701;DHT22;46541;49.894;10.886;2023-05-14T06:52:05;16.50;99.90
60701;DHT22;46541;49.894;10.886;2023-05-14T06:54:32;16.60;99.90
60701;DHT22;46541;49.894;10.886;2023-05-14T06:56:59;16.80;99.90
60701;DHT22;46541;49.894;10.886;2023-05-14T06:59:25;17.00;99.90
60701;DHT22;46541;49.894;10.886;2023-05-14T07:01:52;17.20;99.90
60701;DHT22;46541;49.894;10.886;2023-05-14T07:04:19;17.30;99.90
60701;DHT22;46541;49.894;10.886;2023-05-14T07:06:46;17.20;99.90
60701;DHT22;46541;49.894;10.886;2023-05-14T07:09:12;17.30;99.90
60701;DHT22;46541;49.894;10.886;2023-05-14T07:11:39;17.10;99.90
60701;DHT22;46541;49.894;10.886;2023-05-14T07:14:06;16.90;99.90
60701;DHT22;46541;49.894;10.886;2023-05-14T07:16:33;16.70;99.90
60701;DHT22;46541;49.894;10.886;2023-05-14T07:18:59;16.60;99.90
60701;DHT22;46541;49.894;10.886;2023-05-14T07:21:26;16.60;99.90
60701;DHT22;46541;49.894;10.886;2023-05-14T07:23:53;16.80;99.90
60701;DHT22;46541;49.894;10.886;2023-05-14T07:26:20;16.80;99.90
60701;DHT22;46541;49.894;10.886;2023-05-14T07:28:46;16.90;99.90
60701;DHT22;46541;49.894;10.886;2023-05-14T07:31:13;16.80;99.90
60701;DHT22;46541;49.894;10.886;2023-05-14T07:33:40;16.70;99.90
60701;DHT22;46541;49.894;10.886;2023-05-14T07:36:07;16.70;99.90
60701;DHT22;46541;49.894;10.886;2023-05-14T07:38:34;16.60;99.90
60701;DHT22;46541;49.894;10.886;2023-05-14T07:41:01;16.50;99.90
60701;DHT22;46541;49.894;10.886;2023-05-14T07:43:28;16.60;99.90
60701;DHT22;46541;49.894;10.886;2023-05-14T07:45:54;16.70;99.90
60701;DHT22;46541;49.894;10.886;2023-05-14T07:48:22;16.80;99.90
60701;DHT22;46541;49.894;10.886;2023-05-14T07:50:48;16.80;99.90
60701;DHT22;46541;49.894;10.886;2023-05-14T07:53:15;16.80;99.90
60701;DHT22;46541;49.894;10.886;2023-05-14T07:55:43;16.90;99.90
60701;DHT22;46541;49.894;10.886;2023-05-14T07:58:10;16.80;99.90
60701;DHT22;46541;49.894;10.886;2023-05-14T08:00:37;16.70;99.90
60701;DHT22;46541;49.894;10.886;2023-05-14T08:03:04;16.80;99.90
60701;DHT22;46541;49.894;10.886;2023-05-14T08:05:31;16.70;99.90
60701;DHT22;46541;49.894;10.886;2023-05-14T08:07:58;16.80;99.90
60701;DHT22;46541;49.894;10.886;2023-05-14T08:10:25;16.90;99.90
60701;DHT22;46541;49.894;10.886;2023-05-14T08:12:52;17.00;99.90
60701;DHT22;46541;49.894;10.886;2023-05-14T08:15:19;17.10;99.90
60701;DHT22;46541;49.894;10.886;2023-05-14T08:17:46;17.20;99.50
60701;DHT22;46541;49.894;10.886;2023-05-14T08:20:13;17.20;99.30
60701;DHT22;46541;49.894;10.886;2023-05-14T08:22:39;17.30;98.80
60701;DHT22;46541;49.894;10.886;2023-05-14T08:25:07;17.50;98.80
60701;DHT22;46541;49.894;10.886;2023-05-14T08:27:33;17.80;98.20
60701;DHT22;46541;49.894;10.886;2023-05-14T08:30:00;18.10;97.00
60701;DHT22;46541;49.894;10.886;2023-05-14T08:32:27;18.00;96.80
60701;DHT22;46541;49.894;10.886;2023-05-14T08:34:54;17.80;97.30
60701;DHT22;46541;49.894;10.886;2023-05-14T08:37:20;17.80;97.70
60701;DHT22;46541;49.894;10.886;2023-05-14T08:39:48;17.80;97.90
60701;DHT22;46541;49.894;10.886;2023-05-14T08:42:18;17.80;97.80
60701;DHT22;46541;49.894;10.886;2023-05-14T08:44:54;17.40;97.70
60701;DHT22;46541;49.894;10.886;2023-05-14T08:47:22;17.10;98.20
60701;DHT22;46541;49.894;10.886;2023-05-14T08:49:56;16.80;98.90
60701;DHT22;46541;49.894;10.886;2023-05-14T08:52:24;16.80;99.00
60701;DHT22;46541;49.894;10.886;2023-05-14T08:54:52;16.90;99.10
60701;DHT22;46541;49.894;10.886;2023-05-14T08:57:21;17.20;98.90
60701;DHT22;46541;49.894;10.886;2023-05-14T08:59:50;17.40;98.60
60701;DHT22;46541;49.894;10.886;2023-05-14T09:02:22;17.40;98.40
60701;DHT22;46541;49.894;10.886;2023-05-14T09:04:59;17.50;98.60
60701;DHT22;46541;49.894;10.886;2023-05-14T09:07:27;17.40;98.50
60701;DHT22;46541;49.894;10.886;2023-05-14T09:09:54;17.10;98.80
60701;DHT22;46541;49.894;10.886;2023-05-14T09:12:21;16.90;99.30
60701;DHT22;46541;49.894;10.886;2023-05-14T09:14:49;16.90;99.60
60701;DHT22;46541;49.894;10.886;2023-05-14T09:17:17;16.90;99.80
60701;DHT22;46541;49.894;10.886;2023-05-14T09:19:45;16.80;99.70
60701;DHT22;46541;49.894;10.886;2023-05-14T09:22:18;16.90;99.90
60701;DHT22;46541;49.894;10.886;2023-05-14T09:24:45;16.80;99.80
60701;DHT22;46541;49.894;10.886;2023-05-14T09:27:18;16.80;99.70
60701;DHT22;46541;49.894;10.886;2023-05-14T09:29:46;16.90;99.60
60701;DHT22;46541;49.894;10.886;2023-05-14T09:32:13;17.00;99.90
60701;DHT22;46541;49.894;10.886;2023-05-14T09:34:40;17.10;99.70
60701;DHT22;46541;49.894;10.886;2023-05-14T09:37:08;17.20;99.50
60701;DHT22;46541;49.894;10.886;2023-05-14T09:39:36;17.20;99.80
60701;DHT22;46541;49.894;10.886;2023-05-14T09:42:04;17.30;99.20
60701;DHT22;46541;49.894;10.886;2023-05-14T09:44:30;17.50;98.90
60701;DHT22;46541;49.894;10.886;2023-05-14T09:46:57;17.80;99.10
60701;DHT22;46541;49.894;10.886;2023-05-14T09:49:24;18.10;97.70
60701;DHT22;46541;49.894;10.886;2023-05-14T09:51:51;18.30;98.20
60701;DHT22;46541;49.894;10.886;2023-05-14T09:54:18;18.40;97.30
60701;DHT22;46541;49.894;10.886;2023-05-14T09:56:45;18.60;97.10
60701;DHT22;46541;49.894;10.886;2023-05-14T09:59:11;18.70;96.70
60701;DHT22;46541;49.894;10.886;2023-05-14T10:01:41;18.60;96.50
60701;DHT22;46541;49.894;10.886;2023-05-14T10:04:10;18.50;96.60
60701;DHT22;46541;49.894;10.886;2023-05-14T10:06:38;18.40;97.00
60701;DHT22;46541;49.894;10.886;2023-05-14T10:09:12;18.50;96.80
60701;DHT22;46541;49.894;10.886;2023-05-14T10:11:43;18.90;96.10
60701;DHT22;46541;49.894;10.886;2023-05-14T10:14:28;19.10;95.30
60701;DHT22;46541;49.894;10.886;2023-05-14T10:16:59;19.10;94.90
60701;DHT22;46541;49.894;10.886;2023-05-14T10:19:32;19.10;95.40
60701;DHT22;46541;49.894;10.886;2023-05-14T10:22:04;19.20;95.80
60701;DHT22;46541;49.894;10.886;2023-05-14T10:24:32;19.30;94.30
60701;DHT22;46541;49.894;10.886;2023-05-14T10:27:00;19.20;95.40
60701;DHT22;46541;49.894;10.886;2023-05-14T10:29:33;19.10;95.20
60701;DHT22;46541;49.894;10.886;2023-05-14T10:32:04;19.10;95.10
60701;DHT22;46541;49.894;10.886;2023-05-14T10:34:42;19.20;94.60
60701;DHT22;46541;49.894;10.886;2023-05-14T10:37:18;19.30;94.70
60701;DHT22;46541;49.894;10.886;2023-05-14T10:42:22;19.30;94.50
60701;DHT22;46541;49.894;10.886;2023-05-14T10:44:52;19.40;94.30
60701;DHT22;46541;49.894;10.886;2023-05-14T10:47:21;19.60;94.20
60701;DHT22;46541;49.894;10.886;2023-05-14T10:49:48;19.60;94.00
60701;DHT22;46541;49.894;10.886;2023-05-14T10:52:16;19.50;93.20
60701;DHT22;46541;49.894;10.886;2023-05-14T10:57:17;19.90;92.30
60701;DHT22;46541;49.894;10.886;2023-05-14T10:59:46;19.80;91.70
60701;DHT22;46541;49.894;10.886;2023-05-14T11:05:00;20.20;91.00
60701;DHT22;46541;49.894;10.886;2023-05-14T11:07:31;20.40;90.00
60701;DHT22;46541;49.894;10.886;2023-05-14T11:10:01;20.40;90.40
60701;DHT22;46541;49.894;10.886;2023-05-14T11:12:28;20.20;89.20
60701;DHT22;46541;49.894;10.886;2023-05-14T11:14:59;20.00;89.00
60701;DHT22;46541;49.894;10.886;2023-05-14T11:17:27;19.70;90.00
60701;DHT22;46541;49.894;10.886;2023-05-14T11:19:55;19.60;90.60
60701;DHT22;46541;49.894;10.886;2023-05-14T11:22:22;19.50;90.40
60701;DHT22;46541;49.894;10.886;2023-05-14T11:24:49;19.30;90.40
60701;DHT22;46541;49.894;10.886;2023-05-14T11:27:17;19.30;90.90
60701;DHT22;46541;49.894;10.886;2023-05-14T11:29:44;19.30;91.10
60701;DHT22;46541;49.894;10.886;2023-05-14T11:32:12;19.20;91.60
60701;DHT22;46541;49.894;10.886;2023-05-14T11:34:40;19.20;91.90
60701;DHT22;46541;49.894;10.886;2023-05-14T11:37:07;19.40;91.50
60701;DHT22;46541;49.894;10.886;2023-05-14T11:39:35;19.50;91.10
60701;DHT22;46541;49.894;10.886;2023-05-14T11:42:10;19.60;90.90
60701;DHT22;46541;49.894;10.886;2023-05-14T11:44:43;19.80;91.10
60701;DHT22;46541;49.894;10.886;2023-05-14T11:47:10;20.10;90.40
60701;DHT22;46541;49.894;10.886;2023-05-14T11:49:37;20.40;90.20
60701;DHT22;46541;49.894;10.886;2023-05-14T11:52:07;20.50;87.70
60701;DHT22;46541;49.894;10.886;2023-05-14T11:54:35;20.70;88.50
60701;DHT22;46541;49.894;10.886;2023-05-14T11:57:09;21.00;85.60
60701;DHT22;46541;49.894;10.886;2023-05-14T11:59:37;21.20;85.00
60701;DHT22;46541;49.894;10.886;2023-05-14T12:02:07;21.40;83.30
60701;DHT22;46541;49.894;10.886;2023-05-14T12:04:34;21.50;83.30
60701;DHT22;46541;49.894;10.886;2023-05-14T12:07:07;21.20;82.30
60701;DHT22;46541;49.894;10.886;2023-05-14T12:09:36;21.20;82.30
60701;DHT22;46541;49.894;10.886;2023-05-14T12:12:10;21.30;81.90
60701;DHT22;46541;49.894;10.886;2023-05-14T12:14:39;21.60;81.80
60701;DHT22;46541;49.894;10.886;2023-05-14T12:17:14;21.50;80.90
60701;DHT22;46541;49.894;10.886;2023-05-14T12:19:42;21.50;80.60
60701;DHT22;46541;49.894;10.886;2023-05-14T12:22:11;21.30;80.90
60701;DHT22;46541;49.894;10.886;2023-05-14T12:24:39;21.30;82.80
60701;DHT22;46541;49.894;10.886;2023-05-14T12:27:06;21.00;82.00
60701;DHT22;46541;49.894;10.886;2023-05-14T12:29:36;20.80;82.60
60701;DHT22;46541;49.894;10.886;2023-05-14T12:32:07;21.00;83.30
60701;DHT22;46541;49.894;10.886;2023-05-14T12:34:35;21.10;82.50
60701;DHT22;46541;49.894;10.886;2023-05-14T12:37:04;21.20;82.70
60701;DHT22;46541;49.894;10.886;2023-05-14T12:39:32;21.30;82.80
60701;DHT22;46541;49.894;10.886;2023-05-14T12:41:59;21.10;84.00
60701;DHT22;46541;49.894;10.886;2023-05-14T12:44:28;21.00;82.50
60701;DHT22;46541;49.894;10.886;2023-05-14T12:46:54;20.60;81.60
60701;DHT22;46541;49.894;10.886;2023-05-14T12:49:21;20.60;83.00
60701;DHT22;46541;49.894;10.886;2023-05-14T12:51:48;20.70;83.20
60701;DHT22;46541;49.894;10.886;2023-05-14T12:54:22;21.00;82.30
60701;DHT22;46541;49.894;10.886;2023-05-14T12:56:49;21.00;81.10
60701;DHT22;46541;49.894;10.886;2023-05-14T12:59:15;21.10;81.10
60701;DHT22;46541;49.894;10.886;2023-05-14T13:01:42;21.10;79.40
60701;DHT22;46541;49.894;10.886;2023-05-14T13:04:09;21.10;79.40
60701;DHT22;46541;49.894;10.886;2023-05-14T13:06:39;21.00;79.30
60701;DHT22;46541;49.894;10.886;2023-05-14T13:09:06;20.80;79.50
60701;DHT22;46541;49.894;10.886;2023-05-14T13:11:34;20.90;79.60
60701;DHT22;46541;49.894;10.886;2023-05-14T13:14:01;21.10;79.80
60701;DHT22;46541;49.894;10.886;2023-05-14T13:16:28;21.40;79.40
60701;DHT22;46541;49.894;10.886;2023-05-14T13:18:55;21.60;79.40
60701;DHT22;46541;49.894;10.886;2023-05-14T13:21:22;21.70;79.30
60701;DHT22;46541;49.894;10.886;2023-05-14T13:23:49;21.80;79.80
60701;DHT22;46541;49.894;10.886;2023-05-14T13:26:16;21.70;79.20
60701;DHT22;46541;49.894;10.886;2023-05-14T13:28:42;21.40;78.60
60701;DHT22;46541;49.894;10.886;2023-05-14T13:31:11;21.00;79.60
60701;DHT22;46541;49.894;10.886;2023-05-14T13:33:40;20.70;80.20
60701;DHT22;46541;49.894;10.886;2023-05-14T13:36:08;20.60;80.10
60701;DHT22;46541;49.894;10.886;2023-05-14T13:38:35;20.80;80.80
60701;DHT22;46541;49.894;10.886;2023-05-14T13:41:02;21.00;80.60
60701;DHT22;46541;49.894;10.886;2023-05-14T13:43:30;21.20;79.20
60701;DHT22;46541;49.894;10.886;2023-05-14T13:45:58;21.20;79.70
60701;DHT22;46541;49.894;10.886;2023-05-14T13:48:25;21.40;80.10
60701;DHT22;46541;49.894;10.886;2023-05-14T13:50:52;21.60;80.30
60701;DHT22;46541;49.894;10.886;2023-05-14T13:53:21;21.50;79.00
60701;DHT22;46541;49.894;10.886;2023-05-14T13:55:49;21.20;79.90
60701;DHT22;46541;49.894;10.886;2023-05-14T13:58:16;21.10;81.10
60701;DHT22;46541;49.894;10.886;2023-05-14T14:00:43;21.00;81.50
60701;DHT22;46541;49.894;10.886;2023-05-14T14:03:09;20.90;81.50
60701;DHT22;46541;49.894;10.886;2023-05-14T14:05:36;20.70;81.90
60701;DHT22;46541;49.894;10.886;2023-05-14T14:08:03;20.60;80.90
60701;DHT22;46541;49.894;10.886;2023-05-14T14:10:47;20.40;81.20
60701;DHT22;46541;49.894;10.886;2023-05-14T14:13:14;20.30;82.50
60701;DHT22;46541;49.894;10.886;2023-05-14T14:15:41;20.10;81.90
60701;DHT22;46541;49.894;10.886;2023-05-14T14:18:09;20.20;82.30
60701;DHT22;46541;49.894;10.886;2023-05-14T14:20:36;20.30;81.90
60701;DHT22;46541;49.894;10.886;2023-05-14T14:23:02;20.30;81.90
60701;DHT22;46541;49.894;10.886;2023-05-14T14:25:29;20.30;81.70
60701;DHT22;46541;49.894;10.886;2023-05-14T14:27:56;20.40;81.30
60701;DHT22;46541;49.894;10.886;2023-05-14T14:30:23;20.40;81.60
60701;DHT22;46541;49.894;10.886;2023-05-14T14:32:50;20.40;81.90
60701;DHT22;46541;49.894;10.886;2023-05-14T14:35:18;20.40;81.80
60701;DHT22;46541;49.894;10.886;2023-05-14T14:37:45;20.70;80.80
60701;DHT22;46541;49.894;10.886;2023-05-14T14:40:16;20.70;80.40
60701;DHT22;46541;49.894;10.886;2023-05-14T14:42:43;20.90;80.40
60701;DHT22;46541;49.894;10.886;2023-05-14T14:45:10;21.00;81.10
60701;DHT22;46541;49.894;10.886;2023-05-14T14:47:37;21.30;80.30
60701;DHT22;46541;49.894;10.886;2023-05-14T14:50:05;21.50;79.50
60701;DHT22;46541;49.894;10.886;2023-05-14T14:52:32;21.50;80.00
60701;DHT22;46541;49.894;10.886;2023-05-14T14:54:59;21.40;79.90
60701;DHT22;46541;49.894;10.886;2023-05-14T14:57:26;21.30;80.70
60701;DHT22;46541;49.894;10.886;2023-05-14T14:59:52;21.30;80.40
60701;DHT22;46541;49.894;10.886;2023-05-14T15:02:19;21.30;79.10
60701;DHT22;46541;49.894;10.886;2023-05-14T15:04:46;21.40;80.10
60701;DHT22;46541;49.894;10.886;2023-05-14T15:07:13;21.50;79.50
60701;DHT22;46541;49.894;10.886;2023-05-14T15:09:41;21.60;78.10
60701;DHT22;46541;49.894;10.886;2023-05-14T15:12:08;21.30;77.60
60701;DHT22;46541;49.894;10.886;2023-05-14T15:14:36;21.60;77.70
60701;DHT22;46541;49.894;10.886;2023-05-14T15:17:03;21.70;76.80
60701;DHT22;46541;49.894;10.886;2023-05-14T15:19:30;21.90;76.40
60701;DHT22;46541;49.894;10.886;2023-05-14T15:21:57;22.00;77.90
60701;DHT22;46541;49.894;10.886;2023-05-14T15:24:24;22.00;77.40
60701;DHT22;46541;49.894;10.886;2023-05-14T15:26:51;21.90;78.40
60701;DHT22;46541;49.894;10.886;2023-05-14T15:29:19;21.80;76.60
60701;DHT22;46541;49.894;10.886;2023-05-14T15:31:46;21.40;76.70
60701;DHT22;46541;49.894;10.886;2023-05-14T15:34:13;21.00;78.10
60701;DHT22;46541;49.894;10.886;2023-05-14T15:36:39;20.80;79.20
60701;DHT22;46541;49.894;10.886;2023-05-14T15:39:06;20.70;78.90